createdAt,value
2018-12-30T00:03:16.690Z,22.50
2018-12-30T00:08:24.287Z,21.57
2018-12-30T00:13:33.927Z,22.10
2018-12-30T00:18:43.577Z,19.70
2018-12-30T00:23:50.522Z,21.07
2018-12-30T00:28:54.134Z,20.33
2018-12-30T00:33:57.739Z,20.13
2018-12-30T00:39:01.434Z,20.40
2018-12-30T00:44:05.473Z,21.17
2018-12-30T00:49:09.083Z,20.47
2018-12-30T00:54:18.732Z,20.70
2018-12-30T00:59:22.438Z,20.67
2018-12-30T01:04:26.071Z,21.17
2018-12-30T01:09:29.956Z,22.13
2018-12-30T01:14:35.274Z,19.40
2018-12-30T01:19:38.908Z,20.67
2018-12-30T01:24:45.193Z,19.83
2018-12-30T01:29:54.806Z,20.50
2018-12-30T01:35:09.185Z,21.90
2018-12-30T01:40:15.512Z,20.03
2018-12-30T01:45:21.864Z,21.57
2018-12-30T01:50:28.135Z,20.27
2018-12-30T01:55:33.379Z,22.87
2018-12-30T02:00:39.719Z,20.87
2018-12-30T02:05:43.325Z,23.23
2018-12-30T02:10:50.063Z,18.20
2018-12-30T02:15:53.806Z,20.17
2018-12-30T02:20:59.082Z,21.43
2018-12-30T02:26:08.261Z,19.90
2018-12-30T02:31:14.541Z,21.10
2018-12-30T02:36:19.693Z,21.20
2018-12-30T02:41:23.324Z,20.37
2018-12-30T02:46:32.663Z,20.23
2018-12-30T02:51:36.266Z,19.23
2018-12-30T02:56:40.355Z,19.80
2018-12-30T03:01:54.254Z,19.63
2018-12-30T03:06:58.525Z,21.73
2018-12-30T03:12:04.946Z,18.97
2018-12-30T03:17:11.583Z,20.10
2018-12-30T03:22:19.581Z,21.00
2018-12-30T03:27:23.195Z,20.43
2018-12-30T03:32:35.245Z,18.90
2018-12-30T03:37:38.860Z,20.30
2018-12-30T03:42:51.419Z,21.00
2018-12-30T03:47:56.751Z,20.60
2018-12-30T03:53:06.469Z,18.80
2018-12-30T03:58:10.080Z,18.20
2018-12-30T04:03:16.655Z,19.00
2018-12-30T04:08:20.427Z,18.50
2018-12-30T04:13:27.010Z,17.53
2018-12-30T04:18:36.177Z,19.00
2018-12-30T04:23:40.635Z,17.80
2018-12-30T04:28:44.279Z,17.43
2018-12-30T04:33:47.879Z,17.40
2018-12-30T04:38:51.507Z,19.87
2018-12-30T04:44:03.908Z,17.37
2018-12-30T04:49:07.528Z,19.03
2018-12-30T04:54:13.903Z,18.07
2018-12-30T04:59:17.527Z,17.97
2018-12-30T05:04:21.922Z,19.37
2018-12-30T05:09:27.167Z,18.03
2018-12-30T05:14:30.769Z,17.67
2018-12-30T05:19:34.381Z,19.00
2018-12-30T05:24:38.250Z,15.90
2018-12-30T05:29:41.859Z,17.97
2018-12-30T05:34:50.978Z,16.33
2018-12-30T05:39:56.234Z,14.70
2018-12-30T05:44:59.867Z,15.00
2018-12-30T05:50:04.345Z,16.13
2018-12-30T05:55:16.460Z,16.07
2018-12-30T06:00:20.094Z,15.50
2018-12-30T06:05:26.406Z,14.50
2018-12-30T06:10:34.687Z,12.80
2018-12-30T06:15:38.286Z,14.23
2018-12-30T06:20:43.532Z,15.13
2018-12-30T06:25:47.155Z,14.73
2018-12-30T06:30:52.401Z,14.00
2018-12-30T06:35:56.406Z,14.27
2018-12-30T06:41:06.019Z,13.10
2018-12-30T06:46:13.080Z,13.47
2018-12-30T06:51:22.438Z,13.40
2018-12-30T06:56:26.098Z,10.87
2018-12-30T07:01:35.760Z,13.60
2018-12-30T07:06:39.402Z,14.70
2018-12-30T07:11:43.007Z,13.13
2018-12-30T07:16:46.640Z,13.67
2018-12-30T07:21:50.276Z,12.40
2018-12-30T07:26:55.526Z,12.90
2018-12-30T07:32:01.059Z,13.70
2018-12-30T07:37:04.691Z,11.63
2018-12-30T07:42:08.308Z,11.20
2018-12-30T07:47:11.992Z,10.10
2018-12-30T07:52:15.618Z,11.37
2018-12-30T07:57:20.425Z,9.77
2018-12-30T08:02:25.293Z,10.93
2018-12-30T08:07:28.863Z,10.33
2018-12-30T08:12:32.482Z,11.70
2018-12-30T08:17:36.103Z,10.40
2018-12-30T08:22:39.726Z,9.83
2018-12-30T08:27:43.339Z,9.40
2018-12-30T08:32:47.014Z,10.03
2018-12-30T08:37:50.635Z,10.27
2018-12-30T08:42:54.234Z,6.93
2018-12-30T08:47:58.406Z,8.90
2018-12-30T08:53:03.217Z,9.37
2018-12-30T08:58:07.086Z,10.00
2018-12-30T09:03:13.620Z,9.43
2018-12-30T09:08:23.313Z,8.20
2018-12-30T09:13:26.710Z,7.63
2018-12-30T09:18:30.599Z,11.67
2018-12-30T09:23:37.573Z,8.80
2018-12-30T09:28:39.730Z,6.17
2018-12-30T09:33:43.378Z,7.73
2018-12-30T09:38:46.977Z,7.20
2018-12-30T09:43:50.592Z,6.60
2018-12-30T09:48:54.194Z,7.67
2018-12-30T09:53:57.803Z,8.30
2018-12-30T09:59:01.430Z,6.60
2018-12-30T10:04:05.117Z,7.13
2018-12-30T10:09:08.718Z,6.73
2018-12-30T10:14:15.779Z,7.83
2018-12-30T10:19:19.419Z,6.97
2018-12-30T10:24:23.031Z,7.17
2018-12-30T10:29:26.629Z,7.53
2018-12-30T10:34:32.113Z,6.87
2018-12-30T10:39:35.779Z,7.97
2018-12-30T10:44:39.999Z,7.70
2018-12-30T10:49:43.652Z,7.53
2018-12-30T10:54:47.297Z,7.60
2018-12-30T10:59:51.049Z,7.70
2018-12-30T11:04:54.665Z,7.73
2018-12-30T11:09:58.553Z,7.73
2018-12-30T11:15:03.993Z,8.03
2018-12-30T11:20:07.696Z,7.57
2018-12-30T11:25:11.294Z,7.40
2018-12-30T11:30:15.078Z,6.67
2018-12-30T11:35:18.745Z,6.73
2018-12-30T11:40:22.495Z,6.60
2018-12-30T11:45:27.982Z,11.27
2018-12-30T11:50:31.664Z,6.40
2018-12-30T11:55:35.294Z,7.70
2018-12-30T12:00:40.830Z,7.70
2018-12-30T12:05:44.430Z,7.13
2018-12-30T12:10:48.811Z,7.80
2018-12-30T12:15:52.454Z,7.83
2018-12-30T12:21:19.666Z,7.83
2018-12-30T12:26:23.321Z,7.67
2018-12-30T12:31:27.352Z,8.00
2018-12-30T12:36:31.967Z,7.00
2018-12-30T12:41:35.805Z,8.10
2018-12-30T12:46:39.411Z,8.83
2018-12-30T12:51:43.079Z,9.80
2018-12-30T12:56:46.770Z,12.03
2018-12-30T13:01:52.279Z,12.50
2018-12-30T13:06:55.836Z,13.50
2018-12-30T13:12:02.407Z,13.80
2018-12-30T13:17:06.007Z,13.73
2018-12-30T13:22:09.622Z,13.93
2018-12-30T13:27:13.238Z,14.43
2018-12-30T13:32:16.887Z,13.43
2018-12-30T13:37:20.538Z,14.60
2018-12-30T13:42:24.154Z,13.70
2018-12-30T13:47:27.776Z,12.90
2018-12-30T13:52:31.406Z,13.70
2018-12-30T13:57:35.056Z,13.00
2018-12-30T14:02:38.668Z,13.77
2018-12-30T14:07:43.149Z,12.80
2018-12-30T14:12:49.797Z,13.10
2018-12-30T14:17:53.523Z,12.13
2018-12-30T14:22:57.142Z,13.00
2018-12-30T14:28:00.810Z,12.07
2018-12-30T14:33:04.461Z,11.73
2018-12-30T14:38:08.095Z,11.90
2018-12-30T14:43:11.913Z,13.00
2018-12-30T14:48:15.530Z,13.80
2018-12-30T14:53:36.660Z,13.90
2018-12-30T14:58:40.306Z,11.80
2018-12-30T15:03:43.922Z,12.40
2018-12-30T15:08:47.555Z,12.43
2018-12-30T15:13:52.838Z,12.40
2018-12-30T15:18:58.259Z,12.33
2018-12-30T15:24:01.879Z,12.30
2018-12-30T15:29:05.492Z,12.37
2018-12-30T15:34:11.813Z,11.90
2018-12-30T15:39:15.507Z,13.77
2018-12-30T15:44:19.080Z,15.30
2018-12-30T15:49:24.335Z,12.30
2018-12-30T15:54:31.133Z,12.17
2018-12-30T15:59:37.831Z,11.57
2018-12-30T16:04:41.447Z,12.13
2018-12-30T16:09:45.071Z,12.30
2018-12-30T16:14:48.950Z,11.27
2018-12-30T16:19:52.590Z,10.93
2018-12-30T16:24:56.213Z,11.83
2018-12-30T16:30:00.634Z,18.70
2018-12-30T16:35:04.425Z,14.67
2018-12-30T16:40:09.804Z,14.37
2018-12-30T16:45:13.583Z,14.83
2018-12-30T16:50:22.942Z,13.00
2018-12-30T16:55:26.830Z,13.23
2018-12-30T17:00:33.727Z,13.33
2018-12-30T17:05:37.375Z,12.53
2018-12-30T17:10:44.105Z,12.23
2018-12-30T17:15:48.826Z,12.13
2018-12-30T17:20:52.488Z,14.73
2018-12-30T17:25:56.078Z,12.40
2018-12-30T17:31:02.463Z,12.60
2018-12-30T17:36:06.119Z,14.00
2018-12-30T17:41:09.775Z,13.10
2018-12-30T17:46:18.444Z,13.83
2018-12-30T17:51:24.773Z,14.43
2018-12-30T17:56:30.064Z,13.50
2018-12-30T18:01:33.713Z,13.87
2018-12-30T18:06:37.326Z,13.53
2018-12-30T18:11:46.878Z,16.23
2018-12-30T18:16:57.365Z,13.17
2018-12-30T18:22:01.550Z,12.07
2018-12-30T18:27:05.241Z,12.40
2018-12-30T18:32:11.887Z,11.73
2018-12-30T18:37:15.541Z,12.07
2018-12-30T18:42:19.197Z,14.20
2018-12-30T18:47:22.860Z,13.40
2018-12-30T18:52:30.808Z,12.60
2018-12-30T18:57:37.471Z,12.90
2018-12-30T19:02:43.227Z,15.77
2018-12-30T19:08:06.686Z,13.80
2018-12-30T19:13:10.847Z,13.60
2018-12-30T19:18:14.494Z,12.10
2018-12-30T19:23:18.150Z,12.20
2018-12-30T19:28:21.765Z,12.90
2018-12-30T19:33:25.386Z,12.40
2018-12-30T19:38:28.978Z,12.20
2018-12-30T19:43:35.291Z,13.30
2018-12-30T19:48:40.529Z,17.23
2018-12-30T19:53:47.108Z,13.83
2018-12-30T19:58:54.586Z,12.77
2018-12-30T20:04:01.416Z,13.60
2018-12-30T20:09:07.457Z,13.17
2018-12-30T20:14:11.074Z,13.97
2018-12-30T20:19:14.746Z,13.00
2018-12-30T20:24:21.294Z,12.47
2018-12-30T20:29:24.927Z,13.30
2018-12-30T20:34:39.268Z,12.63
2018-12-30T20:39:42.870Z,14.07
2018-12-30T20:44:46.570Z,12.80
2018-12-30T20:49:53.323Z,12.53
2018-12-30T20:54:59.681Z,12.80
2018-12-30T21:00:06.590Z,16.47
2018-12-30T21:05:10.261Z,14.80
2018-12-30T21:10:13.869Z,14.00
2018-12-30T21:15:17.483Z,14.87
2018-12-30T21:20:21.267Z,13.60
2018-12-30T21:25:25.042Z,15.87
2018-12-30T21:30:29.643Z,14.00
2018-12-30T21:35:33.215Z,12.70
2018-12-30T21:40:36.875Z,14.60
2018-12-30T21:45:40.511Z,13.33
2018-12-30T21:50:46.120Z,15.43
2018-12-30T21:55:49.383Z,17.40
2018-12-30T22:00:54.677Z,20.87
2018-12-30T22:05:58.320Z,16.80
2018-12-30T22:11:03.656Z,15.20
2018-12-30T22:16:09.094Z,16.40
2018-12-30T22:21:12.662Z,14.70
2018-12-30T22:26:16.319Z,14.67
2018-12-30T22:31:19.938Z,14.00
2018-12-30T22:36:23.568Z,14.70
2018-12-30T22:41:27.283Z,13.60
2018-12-30T22:46:31.026Z,15.03
2018-12-30T22:51:34.677Z,14.30
2018-12-30T22:56:38.295Z,15.40
2018-12-30T23:01:41.905Z,14.33
2018-12-30T23:06:50.246Z,14.33
2018-12-30T23:11:53.936Z,15.30
2018-12-30T23:17:00.227Z,15.47
2018-12-30T23:22:03.917Z,14.13
2018-12-30T23:27:13.519Z,14.37
2018-12-30T23:32:17.974Z,15.03
2018-12-30T23:37:23.331Z,14.27
2018-12-30T23:42:27.252Z,14.57
2018-12-30T23:47:34.207Z,13.70
2018-12-30T23:52:39.466Z,15.57
2018-12-30T23:57:46.872Z,14.20
